Historyczne dane pomiarowe

Dodano dane terminowe – wersja testowa.

Dane z okresu 1951-2019

Wersja bazy: 1.34 [2019-03-16, lista zmian], aktualizacja planowana na 2019-04-15

Dane meteo z obszaru Polski uzyskane na podstawie danych udostępnionych przez Instytut Meteorologii i Gospodarki Wodnej – Państwowy Instytut Badawczy.

 

Wybierz Datę:    

       

TemperaturaWilgotnośćWiatrCiśnienieOpadyŚniegCzas trwania zjawisk
 Stacja t tx tn tng RH VA  wxwx mslp ppp RRR   cm mm wxwxwxwxwxwxwx
1994-08-14 15.5 19.9 12.0- 67.5- 5.3 0.7---- 0.0------------
1994-08-13 16.8 21.6 12.5- 75.8- 4.7 0.7---- 1.0------------
1994-08-12 15.8 19.4 13.4- 88.5- 6.7 0.3---- 2.1------------
1994-08-11 17.9 25.6 14.5- 91.3- 5.3 0.7---- 12.3------------
1994-08-10 19.0 26.0 11.3- 72.3- 1.3 0.0---- 0.0------------
1994-08-09 17.9 22.5 14.4- 96.0- 4.3 0.0---- 7.3------------
1994-08-08 20.3 28.0 14.8- 82.0- 5.0 0.0---- 0.2------------
1994-08-07 20.1 28.9 15.1- 80.8- 6.0 0.0---- 7.9------------
1994-08-06 20.8 29.7 12.4- 66.5- 2.0 0.3---- 0.0------------
1994-08-05 21.5 28.9 14.4- 64.8- 1.3 0.7---- 0.0------------
1994-08-04 20.9 28.1 15.1- 61.8- 3.7 0.0---- 0.0------------
1994-08-03 21.9 30.2 15.1- 61.5- 3.3 0.0---- 0.0------------
1994-08-02 22.9 31.8 13.8- 56.0- 2.3 0.0---- 0.0------------
1994-08-01 22.4 31.7 13.3- 63.8- 2.3 0.0---- 0.0------------
1994-07-31 22.2 31.6 13.3- 59.8- 1.3 0.0---- 0.0------------
1994-07-30 21.8 32.2 12.4- 56.8- 0.7 0.0---- 0.0------------
1994-07-29 21.2 31.7 11.3- 53.0- 0.7 0.0---- 0.0------------
1994-07-28 20.9 30.7 12.4- 55.8- 2.3 0.0---- 0.0------------
1994-07-27 20.3 30.3 11.7- 53.8- 2.3 0.0---- 0.0------------
1994-07-26 20.5 28.7 12.5- 59.0- 1.7 0.0---- 0.0------------
1994-07-25 19.9 28.4 12.2- 57.3- 3.7 0.0---- 0.0------------
1994-07-24 19.2 27.1 11.6- 60.3- 2.0 0.0---- 0.0------------
1994-07-23 17.9 26.9 9.5- 56.8- 1.3 0.3---- 0.0------------
1994-07-22 17.5 26.4 8.9- 57.8- 0.7 0.0---- 0.0------------
1994-07-21 16.8 23.4 8.1- 63.0- 1.0 0.3---- 0.0------------
1994-07-20 16.8 20.3 10.4- 59.8- 1.7 1.0---- 0.0------------
1994-07-19 17.9 23.3 13.3- 72.0- 3.0 1.0---- 0.0------------
1994-07-18 19.1 26.4 16.0- 80.8- 6.0 0.0---- 0.4------------
1994-07-17 18.4 25.7 11.9- 75.5- 3.3 0.0---- 2.8------------
1994-07-16 18.7 26.7 12.0- 78.8- 3.7 0.0---- 0.9------------
1994-07-15 18.3 25.6 11.9- 66.0- 2.0 0.3---- 0.0------------
1994-07-14 18.5 26.2 12.0- 73.8- 4.3 0.7---- 0.0------------
1994-07-13 19.1 24.7 14.0- 64.5- 3.7 0.7---- 0.0------------
1994-07-12 18.0 23.7 13.8- 68.8- 3.7 0.3---- 0.0------------
1994-07-11 15.6 20.4 12.7- 88.5- 6.7 1.0---- 0.1------------
1994-07-10 13.1 17.6 9.8- 90.3- 6.3 1.0---- 0.0------------
1994-07-09 12.5 17.9 6.9- 84.8- 5.0 0.0---- 4.0------------
1994-07-08 15.7 19.7 12.7- 69.5- 3.7 0.3---- 0.0------------
1994-07-07 15.3 23.7 7.8- 76.0- 5.0 0.0---- 5.3------------
1994-07-06 18.0 24.8 11.2- 73.5- 1.7 0.7---- 0.0------------
1994-07-05 16.6 24.7 9.4- 76.3- 4.0 0.7---- 0.7------------
1994-07-04 18.2 26.7 8.9- 77.5- 0.7 0.3---- 0.0------------
1994-07-03 16.4 25.7 7.2- 73.5- 0.7 0.3---- 0.0------------
1994-07-02 15.4 22.7 8.6- 77.0- 1.0 0.7---- 0.0------------
1994-07-01 18.2 22.4 15.6- 78.5- 2.3 1.3---- 0.0------------
1994-06-30 20.7 26.8 16.2- 86.0- 4.3 0.7---- 0.7------------
1994-06-29 21.7 30.1 14.3- 82.0- 1.0 0.0---- 0.0------------
1994-06-28 20.8 28.9 14.4- 80.3- 2.0 0.0---- 0.0------------
1994-06-27 19.7 27.5 13.1- 84.5- 2.7 0.3---- 1.5------------
1994-06-26 17.7 26.7 7.1- 76.3- 0.7 0.0---- 0.0------------
1994-06-25 14.0 22.8 4.5- 74.8- 0.0 0.7---- 0.0------------
1994-06-24 13.8 20.6 4.8- 74.8- 1.3 0.7---- 0.0------------
1994-06-23 16.0 21.4 13.3- 78.5- 4.0 3.0---- 0.1------------
1994-06-22 16.0 24.7 7.2- 80.3- 2.7 0.3---- 0.5------------
1994-06-21 13.9 19.6 7.3- 77.0- 1.0 1.0---- 0.0------------
1994-06-20 14.9 20.7 8.4- 83.5- 1.7 1.0---- 0.0------------
1994-06-19 15.0 22.6 8.9- 82.8- 3.0 0.7---- 0.0------------
1994-06-18 9.8 16.7 3.3- 86.0- 4.0 0.0---- 9.2------------
1994-06-17 9.4 13.5 8.0- 84.0- 6.7 0.7---- 0.1------------
1994-06-16 12.2 16.8 5.5- 83.3- 5.0 1.3---- 2.2------------
211.1 ms

 

Źródłem pochodzenia danych jest Instytut Meteorologii i Gospodarki Wodnej – Państwowy Instytut Badawczy. Dane Instytutu Meteorologii i Gospodarki Wodnej – Państwowego Instytutu Badawczego zostały przetworzone.

Dane źródłowe można odnaleźć na stronie https://dane.imgw.pl